sensor_id;sensor_type;location;lat;lon;timestamp;pressure;altitude;pressure_sealevel;temperature;humidity
72414;BME280;60995;52.154;4.498;2023-04-26T00:01:24;101950.03;;;6.55;65.00
72414;BME280;60995;52.154;4.498;2023-04-26T00:03:42;101950.44;;;6.48;64.96
72414;BME280;60995;52.154;4.498;2023-04-26T00:05:59;101948.69;;;6.46;65.37
72414;BME280;60995;52.154;4.498;2023-04-26T00:08:23;101949.06;;;6.40;65.31
72414;BME280;60995;52.154;4.498;2023-04-26T00:10:42;101945.22;;;6.44;65.85
72414;BME280;60995;52.154;4.498;2023-04-26T00:12:59;101947.13;;;6.42;65.47
72414;BME280;60995;52.154;4.498;2023-04-26T00:15:15;101947.63;;;6.33;66.10
72414;BME280;60995;52.154;4.498;2023-04-26T00:17:32;101948.13;;;6.24;65.72
72414;BME280;60995;52.154;4.498;2023-04-26T00:19:49;101938.19;;;6.42;66.35
72414;BME280;60995;52.154;4.498;2023-04-26T00:22:06;101954.78;;;6.34;66.71
72414;BME280;60995;52.154;4.498;2023-04-26T00:24:23;101948.94;;;6.26;67.34
72414;BME280;60995;52.154;4.498;2023-04-26T00:26:39;101947.19;;;6.25;67.09
72414;BME280;60995;52.154;4.498;2023-04-26T00:28:56;101949.44;;;6.17;67.01
72414;BME280;60995;52.154;4.498;2023-04-26T00:31:14;101948.94;;;6.08;67.39
72414;BME280;60995;52.154;4.498;2023-04-26T00:33:31;101957.72;;;5.94;67.60
72414;BME280;60995;52.154;4.498;2023-04-26T00:35:47;101949.13;;;6.05;68.31
72414;BME280;60995;52.154;4.498;2023-04-26T00:38:03;101952.03;;;6.01;67.74
72414;BME280;60995;52.154;4.498;2023-04-26T00:40:20;101952.94;;;6.01;68.01
72414;BME280;60995;52.154;4.498;2023-04-26T00:42:39;101951.00;;;6.03;68.67
72414;BME280;60995;52.154;4.498;2023-04-26T00:44:56;101949.19;;;6.04;68.53
72414;BME280;60995;52.154;4.498;2023-04-26T00:47:12;101951.00;;;6.03;68.48
72414;BME280;60995;52.154;4.498;2023-04-26T00:49:29;101952.56;;;5.90;68.77
72414;BME280;60995;52.154;4.498;2023-04-26T00:51:46;101951.22;;;5.81;69.09
72414;BME280;60995;52.154;4.498;2023-04-26T00:54:03;101952.97;;;5.82;70.31
72414;BME280;60995;52.154;4.498;2023-04-26T00:56:21;101946.88;;;5.78;70.38
72414;BME280;60995;52.154;4.498;2023-04-26T00:58:39;101946.72;;;5.82;70.61
72414;BME280;60995;52.154;4.498;2023-04-26T01:00:55;101942.38;;;5.79;70.58
72414;BME280;60995;52.154;4.498;2023-04-26T01:03:12;101945.13;;;5.77;70.70
72414;BME280;60995;52.154;4.498;2023-04-26T01:05:28;101953.28;;;5.76;71.13
72414;BME280;60995;52.154;4.498;2023-04-26T01:07:45;101950.66;;;5.74;70.94
72414;BME280;60995;52.154;4.498;2023-04-26T01:10:02;101950.66;;;5.74;71.11
72414;BME280;60995;52.154;4.498;2023-04-26T01:12:25;101950.84;;;5.71;71.34
72414;BME280;60995;52.154;4.498;2023-04-26T01:14:42;101946.22;;;5.73;71.68
72414;BME280;60995;52.154;4.498;2023-04-26T01:16:59;101937.94;;;5.78;71.54
72414;BME280;60995;52.154;4.498;2023-04-26T01:19:16;101943.53;;;5.73;71.51
72414;BME280;60995;52.154;4.498;2023-04-26T01:21:33;101942.44;;;5.60;72.41
72414;BME280;60995;52.154;4.498;2023-04-26T01:23:50;101953.88;;;5.46;72.20
72414;BME280;60995;52.154;4.498;2023-04-26T01:26:07;101946.69;;;5.46;72.57
72414;BME280;60995;52.154;4.498;2023-04-26T01:28:24;101949.03;;;5.35;73.33
72414;BME280;60995;52.154;4.498;2023-04-26T01:30:40;101950.31;;;5.28;73.03
72414;BME280;60995;52.154;4.498;2023-04-26T01:32:56;101952.69;;;5.34;72.77
72414;BME280;60995;52.154;4.498;2023-04-26T01:35:13;101953.97;;;5.44;73.10
72414;BME280;60995;52.154;4.498;2023-04-26T01:37:29;101956.31;;;5.33;73.00
72414;BME280;60995;52.154;4.498;2023-04-26T01:39:45;101955.06;;;5.23;73.17
72414;BME280;60995;52.154;4.498;2023-04-26T01:42:02;101956.00;;;5.22;73.81
72414;BME280;60995;52.154;4.498;2023-04-26T01:44:19;101947.28;;;5.34;73.16
72414;BME280;60995;52.154;4.498;2023-04-26T01:46:36;101943.81;;;5.32;73.66
72414;BME280;60995;52.154;4.498;2023-04-26T01:48:52;101947.47;;;5.31;73.88
72414;BME280;60995;52.154;4.498;2023-04-26T01:51:08;101952.53;;;5.37;73.93
72414;BME280;60995;52.154;4.498;2023-04-26T01:53:25;101952.38;;;5.40;74.54
72414;BME280;60995;52.154;4.498;2023-04-26T01:55:42;101946.78;;;5.45;74.61
72414;BME280;60995;52.154;4.498;2023-04-26T01:57:58;101943.50;;;5.38;74.34
72414;BME280;60995;52.154;4.498;2023-04-26T02:00:14;101948.84;;;5.40;74.21
72414;BME280;60995;52.154;4.498;2023-04-26T02:02:31;101953.84;;;5.47;74.09
72414;BME280;60995;52.154;4.498;2023-04-26T02:04:47;101951.44;;;5.59;74.65
72414;BME280;60995;52.154;4.498;2023-04-26T02:07:03;101957.09;;;5.54;74.50
72414;BME280;60995;52.154;4.498;2023-04-26T02:09:19;101953.41;;;5.55;73.74
72414;BME280;60995;52.154;4.498;2023-04-26T02:11:36;101946.16;;;5.57;74.41
72414;BME280;60995;52.154;4.498;2023-04-26T02:13:52;101950.19;;;5.66;73.85
72414;BME280;60995;52.154;4.498;2023-04-26T02:16:09;101952.16;;;5.62;73.73
72414;BME280;60995;52.154;4.498;2023-04-26T02:18:25;101948.16;;;5.71;74.64
72414;BME280;60995;52.154;4.498;2023-04-26T02:20:43;101943.41;;;5.76;73.01
72414;BME280;60995;52.154;4.498;2023-04-26T02:23:00;101951.94;;;5.67;73.09
72414;BME280;60995;52.154;4.498;2023-04-26T02:25:16;101947.81;;;5.60;74.10
72414;BME280;60995;52.154;4.498;2023-04-26T02:27:33;101953.19;;;5.60;73.80
72414;BME280;60995;52.154;4.498;2023-04-26T02:29:49;101949.56;;;5.61;74.16
72414;BME280;60995;52.154;4.498;2023-04-26T02:32:06;101947.81;;;5.60;73.85
72414;BME280;60995;52.154;4.498;2023-04-26T02:34:23;101945.13;;;5.60;74.12
72414;BME280;60995;52.154;4.498;2023-04-26T02:36:39;101952.09;;;5.46;74.58
72414;BME280;60995;52.154;4.498;2023-04-26T02:38:55;101940.41;;;5.46;74.86
72414;BME280;60995;52.154;4.498;2023-04-26T02:41:12;101940.97;;;5.35;74.72
72414;BME280;60995;52.154;4.498;2023-04-26T02:43:28;101944.47;;;5.37;74.78
72414;BME280;60995;52.154;4.498;2023-04-26T02:45:45;101937.72;;;5.28;74.72
72414;BME280;60995;52.154;4.498;2023-04-26T02:48:01;101937.72;;;5.28;75.11
72414;BME280;60995;52.154;4.498;2023-04-26T02:50:17;101942.38;;;5.25;75.16
72414;BME280;60995;52.154;4.498;2023-04-26T02:52:34;101946.16;;;5.21;74.68
72414;BME280;60995;52.154;4.498;2023-04-26T02:54:51;101940.63;;;5.24;75.44
72414;BME280;60995;52.154;4.498;2023-04-26T02:57:07;101937.66;;;5.11;75.20
72414;BME280;60995;52.154;4.498;2023-04-26T02:59:24;101936.16;;;5.05;75.35
72414;BME280;60995;52.154;4.498;2023-04-26T03:01:40;101926.56;;;5.00;75.47
72414;BME280;60995;52.154;4.498;2023-04-26T03:03:57;101932.69;;;5.03;75.67
72414;BME280;60995;52.154;4.498;2023-04-26T03:06:13;101925.41;;;5.05;76.43
72414;BME280;60995;52.154;4.498;2023-04-26T03:08:29;101937.34;;;5.00;76.69
72414;BME280;60995;52.154;4.498;2023-04-26T03:10:46;101934.84;;;4.95;76.31
72414;BME280;60995;52.154;4.498;2023-04-26T03:13:03;101934.78;;;4.96;76.65
72414;BME280;60995;52.154;4.498;2023-04-26T03:15:20;101935.13;;;4.89;76.61
72414;BME280;60995;52.154;4.498;2023-04-26T03:17:39;101933.91;;;4.96;76.55
72414;BME280;60995;52.154;4.498;2023-04-26T03:19:55;101934.00;;;4.94;76.02
72414;BME280;60995;52.154;4.498;2023-04-26T03:22:12;101939.50;;;5.10;76.42
72414;BME280;60995;52.154;4.498;2023-04-26T03:24:31;101932.88;;;5.18;75.65
72414;BME280;60995;52.154;4.498;2023-04-26T03:26:47;101932.72;;;5.21;76.14
72414;BME280;60995;52.154;4.498;2023-04-26T03:29:03;101928.91;;;5.07;76.58
72414;BME280;60995;52.154;4.498;2023-04-26T03:31:20;101932.38;;;5.09;76.36
72414;BME280;60995;52.154;4.498;2023-04-26T03:33:37;101937.75;;;5.09;77.15
72414;BME280;60995;52.154;4.498;2023-04-26T03:35:53;101931.13;;;5.17;77.29
72414;BME280;60995;52.154;4.498;2023-04-26T03:38:10;101929.84;;;5.24;77.61
72414;BME280;60995;52.154;4.498;2023-04-26T03:40:26;101928.28;;;5.20;77.34
72414;BME280;60995;52.154;4.498;2023-04-26T03:42:43;101916.78;;;5.16;76.68
72414;BME280;60995;52.154;4.498;2023-04-26T03:44:59;101925.44;;;5.23;76.50
72414;BME280;60995;52.154;4.498;2023-04-26T03:47:15;101919.25;;;5.21;76.62
72414;BME280;60995;52.154;4.498;2023-04-26T03:49:31;101917.69;;;5.17;76.61
72414;BME280;60995;52.154;4.498;2023-04-26T03:51:48;101916.75;;;5.18;76.13
72414;BME280;60995;52.154;4.498;2023-04-26T03:54:04;101905.97;;;5.18;76.31
72414;BME280;60995;52.154;4.498;2023-04-26T03:56:21;101914.63;;;5.05;76.36
72414;BME280;60995;52.154;4.498;2023-04-26T03:58:37;101912.41;;;4.96;76.63
72414;BME280;60995;52.154;4.498;2023-04-26T04:00:56;101912.44;;;5.13;77.14
72414;BME280;60995;52.154;4.498;2023-04-26T04:03:15;101909.34;;;5.21;76.67
72414;BME280;60995;52.154;4.498;2023-04-26T04:05:32;101902.78;;;5.09;76.32
72414;BME280;60995;52.154;4.498;2023-04-26T04:07:48;101913.22;;;4.98;76.94
72414;BME280;60995;52.154;4.498;2023-04-26T04:10:05;101905.53;;;5.08;77.46
72414;BME280;60995;52.154;4.498;2023-04-26T04:12:22;101914.03;;;5.18;77.31
72414;BME280;60995;52.154;4.498;2023-04-26T04:14:38;101917.13;;;5.10;76.50
72414;BME280;60995;52.154;4.498;2023-04-26T04:16:54;101914.78;;;5.02;77.04
72414;BME280;60995;52.154;4.498;2023-04-26T04:19:11;101914.47;;;5.08;76.98
72414;BME280;60995;52.154;4.498;2023-04-26T04:21:27;101919.84;;;5.08;77.44
72414;BME280;60995;52.154;4.498;2023-04-26T04:23:43;101918.78;;;5.12;77.21
72414;BME280;60995;52.154;4.498;2023-04-26T04:25:59;101926.09;;;5.28;77.88
72414;BME280;60995;52.154;4.498;2023-04-26T04:28:16;101921.84;;;5.41;77.02
72414;BME280;60995;52.154;4.498;2023-04-26T04:30:32;101921.97;;;5.38;77.12
72414;BME280;60995;52.154;4.498;2023-04-26T04:32:49;101925.25;;;5.45;76.78
72414;BME280;60995;52.154;4.498;2023-04-26T04:35:05;101920.66;;;5.65;76.64
72414;BME280;60995;52.154;4.498;2023-04-26T04:37:22;101922.78;;;5.58;76.07
72414;BME280;60995;52.154;4.498;2023-04-26T04:39:40;101925.78;;;5.69;76.02
72414;BME280;60995;52.154;4.498;2023-04-26T04:41:56;101921.22;;;5.71;76.43
72414;BME280;60995;52.154;4.498;2023-04-26T04:44:14;101931.72;;;5.76;75.91
72414;BME280;60995;52.154;4.498;2023-04-26T04:46:31;101930.69;;;5.78;75.49
72414;BME280;60995;52.154;4.498;2023-04-26T04:48:47;101934.34;;;5.77;75.64
72414;BME280;60995;52.154;4.498;2023-04-26T04:51:04;101928.56;;;5.85;75.54
72414;BME280;60995;52.154;4.498;2023-04-26T04:53:21;101929.28;;;5.89;75.09
72414;BME280;60995;52.154;4.498;2023-04-26T04:55:37;101927.31;;;5.92;75.30
72414;BME280;60995;52.154;4.498;2023-04-26T04:57:53;101918.41;;;5.90;75.33
72414;BME280;60995;52.154;4.498;2023-04-26T05:00:10;101919.94;;;5.96;74.77
72414;BME280;60995;52.154;4.498;2023-04-26T05:02:27;101931.41;;;6.17;73.89
72414;BME280;60995;52.154;4.498;2023-04-26T05:04:43;101932.88;;;6.40;73.50
72414;BME280;60995;52.154;4.498;2023-04-26T05:07:00;101941.19;;;6.69;73.26
72414;BME280;60995;52.154;4.498;2023-04-26T05:09:16;101935.47;;;6.42;71.40
72414;BME280;60995;52.154;4.498;2023-04-26T05:11:33;101928.66;;;6.84;71.67
72414;BME280;60995;52.154;4.498;2023-04-26T05:13:49;101926.38;;;6.76;70.25
72414;BME280;60995;52.154;4.498;2023-04-26T05:16:05;101920.03;;;6.93;70.64
72414;BME280;60995;52.154;4.498;2023-04-26T05:18:22;101920.75;;;6.97;70.42
72414;BME280;60995;52.154;4.498;2023-04-26T05:20:38;101913.31;;;7.17;70.60
72414;BME280;60995;52.154;4.498;2023-04-26T05:22:54;101913.94;;;7.22;70.00
72414;BME280;60995;52.154;4.498;2023-04-26T05:25:10;101919.03;;;7.42;69.62
72414;BME280;60995;52.154;4.498;2023-04-26T05:27:28;101913.88;;;7.54;69.18
72414;BME280;60995;52.154;4.498;2023-04-26T05:29:45;101918.47;;;7.82;69.26
72414;BME280;60995;52.154;4.498;2023-04-26T05:32:01;101919.06;;;7.87;68.49
72414;BME280;60995;52.154;4.498;2023-04-26T05:34:17;101918.16;;;7.72;67.88
72414;BME280;60995;52.154;4.498;2023-04-26T05:36:34;101928.91;;;7.88;67.43
72414;BME280;60995;52.154;4.498;2023-04-26T05:38:50;101928.56;;;8.09;66.80
72414;BME280;60995;52.154;4.498;2023-04-26T05:41:06;101932.06;;;8.25;66.13
72414;BME280;60995;52.154;4.498;2023-04-26T05:43:23;101936.06;;;8.49;65.95
72414;BME280;60995;52.154;4.498;2023-04-26T05:45:39;101935.63;;;8.69;65.24
72414;BME280;60995;52.154;4.498;2023-04-26T05:47:55;101935.84;;;8.81;64.12
72414;BME280;60995;52.154;4.498;2023-04-26T05:50:11;101929.03;;;9.30;62.07
72414;BME280;60995;52.154;4.498;2023-04-26T05:52:28;101944.41;;;9.29;60.88
72414;BME280;60995;52.154;4.498;2023-04-26T05:54:44;101935.59;;;10.06;60.37
72414;BME280;60995;52.154;4.498;2023-04-26T05:57:00;101936.38;;;10.47;58.55
72414;BME280;60995;52.154;4.498;2023-04-26T05:59:17;101932.41;;;10.89;57.74
72414;BME280;60995;52.154;4.498;2023-04-26T06:01:33;101933.34;;;11.50;55.48
72414;BME280;60995;52.154;4.498;2023-04-26T06:03:49;101940.63;;;11.73;54.75
72414;BME280;60995;52.154;4.498;2023-04-26T06:06:06;101937.53;;;13.04;52.77
72414;BME280;60995;52.154;4.498;2023-04-26T06:08:22;101941.66;;;12.76;50.11
72414;BME280;60995;52.154;4.498;2023-04-26T06:10:39;101938.03;;;12.19;51.31
72414;BME280;60995;52.154;4.498;2023-04-26T06:12:55;101947.50;;;12.37;51.35
72414;BME280;60995;52.154;4.498;2023-04-26T06:15:11;101939.28;;;12.03;51.50
72414;BME280;60995;52.154;4.498;2023-04-26T06:17:28;101952.53;;;11.84;51.12
72414;BME280;60995;52.154;4.498;2023-04-26T06:19:44;101951.44;;;12.33;50.91
72414;BME280;60995;52.154;4.498;2023-04-26T06:22:00;101947.94;;;12.20;49.96
72414;BME280;60995;52.154;4.498;2023-04-26T06:24:16;101953.03;;;12.24;49.71
72414;BME280;60995;52.154;4.498;2023-04-26T06:26:33;101949.91;;;11.71;51.29
72414;BME280;60995;52.154;4.498;2023-04-26T06:28:49;101956.88;;;11.14;52.29
72414;BME280;60995;52.154;4.498;2023-04-26T06:31:06;101963.69;;;10.95;52.45
72414;BME280;60995;52.154;4.498;2023-04-26T06:33:22;101964.44;;;10.97;52.81
72414;BME280;60995;52.154;4.498;2023-04-26T06:35:39;101974.16;;;10.75;53.92
72414;BME280;60995;52.154;4.498;2023-04-26T06:37:56;101977.06;;;10.21;55.03
72414;BME280;60995;52.154;4.498;2023-04-26T06:40:12;101975.34;;;9.80;56.55
72414;BME280;60995;52.154;4.498;2023-04-26T06:42:30;101970.63;;;9.29;58.99
72414;BME280;60995;52.154;4.498;2023-04-26T06:44:46;101973.03;;;8.91;61.64
72414;BME280;60995;52.154;4.498;2023-04-26T06:47:03;101975.47;;;8.67;63.44
72414;BME280;60995;52.154;4.498;2023-04-26T06:49:22;101972.94;;;8.78;63.86
72414;BME280;60995;52.154;4.498;2023-04-26T06:51:38;101967.25;;;8.69;63.71
72414;BME280;60995;52.154;4.498;2023-04-26T06:53:55;101963.84;;;8.94;63.75
72414;BME280;60995;52.154;4.498;2023-04-26T06:56:14;101959.19;;;8.96;63.15
72414;BME280;60995;52.154;4.498;2023-04-26T06:58:30;101959.41;;;8.93;64.50
72414;BME280;60995;52.154;4.498;2023-04-26T07:00:46;101965.25;;;9.14;63.10
72414;BME280;60995;52.154;4.498;2023-04-26T07:03:02;101959.81;;;9.29;61.76
72414;BME280;60995;52.154;4.498;2023-04-26T07:05:19;101957.28;;;9.53;61.56
72414;BME280;60995;52.154;4.498;2023-04-26T07:07:35;101959.44;;;9.88;58.86
72414;BME280;60995;52.154;4.498;2023-04-26T07:09:51;101963.06;;;10.01;57.07
72414;BME280;60995;52.154;4.498;2023-04-26T07:12:12;101955.72;;;10.55;56.54
72414;BME280;60995;52.154;4.498;2023-04-26T07:14:29;101954.69;;;11.67;55.23
72414;BME280;60995;52.154;4.498;2023-04-26T07:16:45;101956.63;;;13.04;50.96
72414;BME280;60995;52.154;4.498;2023-04-26T07:19:01;101970.00;;;12.73;48.85
72414;BME280;60995;52.154;4.498;2023-04-26T07:21:18;101962.53;;;12.07;50.42
72414;BME280;60995;52.154;4.498;2023-04-26T07:23:34;101976.72;;;11.27;52.19
72414;BME280;60995;52.154;4.498;2023-04-26T07:25:51;101980.81;;;10.46;54.37
72414;BME280;60995;52.154;4.498;2023-04-26T07:28:07;101983.31;;;10.08;55.67
72414;BME280;60995;52.154;4.498;2023-04-26T07:30:24;101983.72;;;10.55;54.41
72414;BME280;60995;52.154;4.498;2023-04-26T07:32:40;101978.13;;;10.83;54.56
72414;BME280;60995;52.154;4.498;2023-04-26T07:34:57;101972.16;;;10.90;54.22
72414;BME280;60995;52.154;4.498;2023-04-26T07:37:13;101981.63;;;11.22;54.27
72414;BME280;60995;52.154;4.498;2023-04-26T07:39:29;101973.22;;;11.01;54.38
72414;BME280;60995;52.154;4.498;2023-04-26T07:41:46;101971.03;;;11.06;53.88
72414;BME280;60995;52.154;4.498;2023-04-26T07:44:02;101988.44;;;10.90;53.48
72414;BME280;60995;52.154;4.498;2023-04-26T07:46:19;101986.94;;;10.09;53.06
72414;BME280;60995;52.154;4.498;2023-04-26T07:48:35;101987.41;;;10.54;52.99
72414;BME280;60995;52.154;4.498;2023-04-26T07:50:51;101981.41;;;10.62;54.43
72414;BME280;60995;52.154;4.498;2023-04-26T07:53:08;101981.16;;;10.91;54.42
72414;BME280;60995;52.154;4.498;2023-04-26T07:55:24;101982.66;;;11.69;52.76
72414;BME280;60995;52.154;4.498;2023-04-26T07:57:41;101975.84;;;11.99;52.30
72414;BME280;60995;52.154;4.498;2023-04-26T07:59:58;101975.94;;;12.45;50.53
72414;BME280;60995;52.154;4.498;2023-04-26T08:02:14;101977.59;;;12.70;49.60
72414;BME280;60995;52.154;4.498;2023-04-26T08:04:32;101981.34;;;13.24;47.95
72414;BME280;60995;52.154;4.498;2023-04-26T08:06:49;101988.69;;;13.01;46.92
72414;BME280;60995;52.154;4.498;2023-04-26T08:09:05;101987.47;;;12.71;46.20
72414;BME280;60995;52.154;4.498;2023-04-26T08:11:21;101984.84;;;13.03;44.18
72414;BME280;60995;52.154;4.498;2023-04-26T08:13:38;101979.22;;;13.83;42.36
72414;BME280;60995;52.154;4.498;2023-04-26T08:15:54;101982.56;;;14.50;40.48
72414;BME280;60995;52.154;4.498;2023-04-26T08:18:10;101974.22;;;15.23;38.05
72414;BME280;60995;52.154;4.498;2023-04-26T08:20:27;101973.66;;;16.37;35.10
72414;BME280;60995;52.154;4.498;2023-04-26T08:22:43;101976.38;;;16.94;34.85
72414;BME280;60995;52.154;4.498;2023-04-26T08:24:59;101975.28;;;15.61;36.20
72414;BME280;60995;52.154;4.498;2023-04-26T08:27:16;101965.97;;;15.83;37.15
72414;BME280;60995;52.154;4.498;2023-04-26T08:29:34;101971.97;;;15.67;36.66
72414;BME280;60995;52.154;4.498;2023-04-26T08:31:50;101974.59;;;15.98;36.30
72414;BME280;60995;52.154;4.498;2023-04-26T08:34:06;101968.66;;;16.23;35.29
72414;BME280;60995;52.154;4.498;2023-04-26T08:36:26;101974.28;;;15.62;36.33
72414;BME280;60995;52.154;4.498;2023-04-26T08:38:42;101970.50;;;15.24;36.86
72414;BME280;60995;52.154;4.498;2023-04-26T08:40:58;101975.78;;;14.75;39.01
72414;BME280;60995;52.154;4.498;2023-04-26T08:43:18;101974.50;;;14.27;39.70
72414;BME280;60995;52.154;4.498;2023-04-26T08:45:36;101972.03;;;14.24;39.85
72414;BME280;60995;52.154;4.498;2023-04-26T08:47:57;101970.88;;;13.84;40.93
72414;BME280;60995;52.154;4.498;2023-04-26T08:50:23;101974.22;;;13.88;40.37
72414;BME280;60995;52.154;4.498;2023-04-26T08:52:41;101981.63;;;13.65;40.69
72414;BME280;60995;52.154;4.498;2023-04-26T08:54:59;101981.41;;;13.89;40.64
72414;BME280;60995;52.154;4.498;2023-04-26T08:57:17;101978.84;;;14.09;40.76
72414;BME280;60995;52.154;4.498;2023-04-26T08:59:38;101974.91;;;14.22;39.82
72414;BME280;60995;52.154;4.498;2023-04-26T09:01:55;101984.00;;;14.54;39.16
72414;BME280;60995;52.154;4.498;2023-04-26T09:04:15;101971.88;;;14.47;38.59
72414;BME280;60995;52.154;4.498;2023-04-26T09:06:32;101979.88;;;14.38;38.93
72414;BME280;60995;52.154;4.498;2023-04-26T09:08:52;101981.84;;;14.27;38.96
72414;BME280;60995;52.154;4.498;2023-04-26T09:11:11;101979.50;;;13.68;39.91
72414;BME280;60995;52.154;4.498;2023-04-26T09:13:28;101975.63;;;13.50;40.37
72414;BME280;60995;52.154;4.498;2023-04-26T09:15:47;101977.84;;;13.33;40.83
72414;BME280;60995;52.154;4.498;2023-04-26T09:18:21;101983.06;;;14.01;39.66
72414;BME280;60995;52.154;4.498;2023-04-26T09:20:38;101985.75;;;14.55;39.40
72414;BME280;60995;52.154;4.498;2023-04-26T09:23:13;101977.91;;;14.41;38.55
72414;BME280;60995;52.154;4.498;2023-04-26T09:25:31;101975.06;;;15.14;37.69
72414;BME280;60995;52.154;4.498;2023-04-26T09:27:48;101986.41;;;14.26;38.32
72414;BME280;60995;52.154;4.498;2023-04-26T09:30:09;101977.91;;;13.98;39.69
72414;BME280;60995;52.154;4.498;2023-04-26T09:35:00;101970.38;;;13.90;39.11
72414;BME280;60995;52.154;4.498;2023-04-26T09:37:17;101975.00;;;15.64;37.52
72414;BME280;60995;52.154;4.498;2023-04-26T09:39:41;101968.88;;;18.14;32.93
72414;BME280;60995;52.154;4.498;2023-04-26T09:41:58;101957.56;;;20.05;29.04
72414;BME280;60995;52.154;4.498;2023-04-26T09:44:22;101956.91;;;21.55;27.17
72414;BME280;60995;52.154;4.498;2023-04-26T09:46:39;101947.91;;;22.98;25.74
72414;BME280;60995;52.154;4.498;2023-04-26T09:49:01;101953.16;;;21.71;25.66
72414;BME280;60995;52.154;4.498;2023-04-26T09:51:18;101958.97;;;22.38;23.68
72414;BME280;60995;52.154;4.498;2023-04-26T09:53:45;101939.19;;;23.52;22.79
72414;BME280;60995;52.154;4.498;2023-04-26T09:58:26;101953.56;;;22.06;23.51
72414;BME280;60995;52.154;4.498;2023-04-26T10:00:43;101944.63;;;20.30;26.02
72414;BME280;60995;52.154;4.498;2023-04-26T10:03:03;101947.25;;;22.66;23.06
72414;BME280;60995;52.154;4.498;2023-04-26T10:05:22;101942.09;;;24.66;20.96
72414;BME280;60995;52.154;4.498;2023-04-26T10:07:38;101944.78;;;21.25;23.28
72414;BME280;60995;52.154;4.498;2023-04-26T10:09:57;101953.72;;;18.89;25.71
72414;BME280;60995;52.154;4.498;2023-04-26T10:12:15;101951.16;;;17.73;26.09
72414;BME280;60995;52.154;4.498;2023-04-26T10:14:34;101946.06;;;17.42;27.34
72414;BME280;60995;52.154;4.498;2023-04-26T10:16:52;101951.25;;;16.61;29.58
72414;BME280;60995;52.154;4.498;2023-04-26T10:19:10;101953.47;;;16.48;30.77
72414;BME280;60995;52.154;4.498;2023-04-26T10:21:33;101965.44;;;17.76;28.85
72414;BME280;60995;52.154;4.498;2023-04-26T10:23:55;101951.16;;;18.96;27.59
72414;BME280;60995;52.154;4.498;2023-04-26T10:29:12;101949.53;;;18.85;28.11
72414;BME280;60995;52.154;4.498;2023-04-26T10:32:06;101952.94;;;18.44;29.40
72414;BME280;60995;52.154;4.498;2023-04-26T10:34:24;101962.53;;;18.14;29.19
72414;BME280;60995;52.154;4.498;2023-04-26T10:39:23;101950.59;;;16.40;32.63
72414;BME280;60995;52.154;4.498;2023-04-26T10:41:42;101950.91;;;16.36;33.69
72414;BME280;60995;52.154;4.498;2023-04-26T10:44:36;101955.69;;;14.86;36.26
72414;BME280;60995;52.154;4.498;2023-04-26T10:46:55;101961.84;;;15.29;36.24
72414;BME280;60995;52.154;4.498;2023-04-26T10:49:16;101959.44;;;13.69;38.62
72414;BME280;60995;52.154;4.498;2023-04-26T10:51:34;101956.88;;;13.89;38.73
72414;BME280;60995;52.154;4.498;2023-04-26T10:56:06;101945.34;;;16.56;34.02
72414;BME280;60995;52.154;4.498;2023-04-26T10:58:27;101940.75;;;17.94;31.88
72414;BME280;60995;52.154;4.498;2023-04-26T11:03:21;101939.38;;;20.60;26.90
72414;BME280;60995;52.154;4.498;2023-04-26T11:05:50;101935.69;;;20.12;27.36
72414;BME280;60995;52.154;4.498;2023-04-26T11:10:29;101933.66;;;18.97;28.97
72414;BME280;60995;52.154;4.498;2023-04-26T11:12:58;101941.44;;;17.42;30.72
72414;BME280;60995;52.154;4.498;2023-04-26T11:15:16;101936.25;;;17.57;30.19
72414;BME280;60995;52.154;4.498;2023-04-26T11:17:36;101924.75;;;18.77;28.64
72414;BME280;60995;52.154;4.498;2023-04-26T11:19:53;101924.13;;;19.59;27.67
72414;BME280;60995;52.154;4.498;2023-04-26T11:22:20;101926.53;;;19.62;27.72
72414;BME280;60995;52.154;4.498;2023-04-26T11:24:38;101934.16;;;18.66;29.09
72414;BME280;60995;52.154;4.498;2023-04-26T11:26:54;101929.06;;;16.92;30.83
72414;BME280;60995;52.154;4.498;2023-04-26T11:29:17;101934.53;;;17.38;30.54
72414;BME280;60995;52.154;4.498;2023-04-26T11:31:34;101923.19;;;19.09;28.21
72414;BME280;60995;52.154;4.498;2023-04-26T11:33:51;101927.78;;;17.86;29.54
72414;BME280;60995;52.154;4.498;2023-04-26T11:36:07;101931.72;;;18.28;28.78
72414;BME280;60995;52.154;4.498;2023-04-26T11:38:25;101926.53;;;17.27;30.32
72414;BME280;60995;52.154;4.498;2023-04-26T11:40:43;101920.13;;;17.54;29.80
72414;BME280;60995;52.154;4.498;2023-04-26T11:43:04;101924.28;;;17.94;29.99
72414;BME280;60995;52.154;4.498;2023-04-26T11:45:20;101923.31;;;17.67;29.89
72414;BME280;60995;52.154;4.498;2023-04-26T11:47:38;101922.66;;;17.01;30.68
72414;BME280;60995;52.154;4.498;2023-04-26T11:49:55;101918.16;;;17.64;30.17
72414;BME280;60995;52.154;4.498;2023-04-26T11:52:12;101927.63;;;18.06;29.65
72414;BME280;60995;52.154;4.498;2023-04-26T11:54:33;101927.06;;;16.47;31.92
72414;BME280;60995;52.154;4.498;2023-04-26T11:56:51;101939.22;;;14.66;35.34
72414;BME280;60995;52.154;4.498;2023-04-26T11:59:07;101936.41;;;15.67;34.39
72414;BME280;60995;52.154;4.498;2023-04-26T12:01:26;101923.94;;;16.69;32.04
72414;BME280;60995;52.154;4.498;2023-04-26T12:03:49;101921.00;;;17.36;30.64
72414;BME280;60995;52.154;4.498;2023-04-26T12:06:06;101929.34;;;17.35;30.50
72414;BME280;60995;52.154;4.498;2023-04-26T12:08:23;101925.81;;;17.43;30.17
72414;BME280;60995;52.154;4.498;2023-04-26T12:10:40;101927.16;;;17.20;29.89
72414;BME280;60995;52.154;4.498;2023-04-26T12:12:58;101929.25;;;16.43;31.51
72414;BME280;60995;52.154;4.498;2023-04-26T12:15:15;101930.44;;;17.24;29.43
72414;BME280;60995;52.154;4.498;2023-04-26T12:17:37;101927.03;;;16.94;29.18
72414;BME280;60995;52.154;4.498;2023-04-26T12:19:54;101931.06;;;16.62;30.38
72414;BME280;60995;52.154;4.498;2023-04-26T12:22:10;101932.91;;;16.62;30.38